Terminal Aerodrome Forecast
Issued by NWS

Home | Current Version | Previous Version | Graphics & Text | Print | Product List | Glossary On
Versions: 1 2 3 4 5 6 7 8 9 10 11 12 13 14 15 16
000
FTUS43 KBIS 012300
TAFMOT
TAF
KMOT 012320Z 0200/0224 29014G24KT P6SM BKN050
     FM020200 28008KT P6SM BKN040
     FM020500 26007KT P6SM SCT160
     FM021600 24015G23KT P6SM BKN060
     FM021900 26018G26KT 5SM -SHRA BKN045
     FM022100 29022G30KT P6SM BKN040=

USA.gov is the U.S. government's official web portal to all federal, state and local government web resources and services.